sensor_id;sensor_type;location;lat;lon;timestamp;pressure;altitude;pressure_sealevel;temperature
68745;BMP180;55731;45.456;11.064;2022-11-20T00:02:24;99925.00;;;10.58
68745;BMP180;55731;45.456;11.064;2022-11-20T00:05:00;99931.00;;;10.50
68745;BMP180;55731;45.456;11.064;2022-11-20T00:07:36;99931.40;;;10.50
68745;BMP180;55731;45.456;11.064;2022-11-20T00:10:14;99940.20;;;10.46
68745;BMP180;55731;45.456;11.064;2022-11-20T00:12:50;99940.20;;;10.40
68745;BMP180;55731;45.456;11.064;2022-11-20T00:15:27;99944.40;;;10.40
68745;BMP180;55731;45.456;11.064;2022-11-20T00:18:03;99937.80;;;10.30
68745;BMP180;55731;45.456;11.064;2022-11-20T00:20:40;99942.60;;;10.30
68745;BMP180;55731;45.456;11.064;2022-11-20T00:23:17;99944.40;;;10.28
68745;BMP180;55731;45.456;11.064;2022-11-20T00:25:53;99949.40;;;10.30
68745;BMP180;55731;45.456;11.064;2022-11-20T00:28:29;99947.60;;;10.30
68745;BMP180;55731;45.456;11.064;2022-11-20T00:31:12;99953.00;;;10.26
68745;BMP180;55731;45.456;11.064;2022-11-20T00:33:48;99953.80;;;10.22
68745;BMP180;55731;45.456;11.064;2022-11-20T00:36:26;99955.60;;;10.30
68745;BMP180;55731;45.456;11.064;2022-11-20T00:39:02;99948.80;;;10.30
68745;BMP180;55731;45.456;11.064;2022-11-20T00:41:39;99953.40;;;10.30
68745;BMP180;55731;45.456;11.064;2022-11-20T00:44:20;99957.00;;;10.30
68745;BMP180;55731;45.456;11.064;2022-11-20T00:46:56;99961.80;;;10.30
68745;BMP180;55731;45.456;11.064;2022-11-20T00:49:33;99963.60;;;10.28
68745;BMP180;55731;45.456;11.064;2022-11-20T00:52:10;99963.60;;;10.20
68745;BMP180;55731;45.456;11.064;2022-11-20T00:54:46;99967.00;;;10.10
68745;BMP180;55731;45.456;11.064;2022-11-20T00:57:22;99968.80;;;10.12
68745;BMP180;55731;45.456;11.064;2022-11-20T00:59:59;99970.60;;;10.20
68745;BMP180;55731;45.456;11.064;2022-11-20T01:02:36;99970.80;;;10.30
68745;BMP180;55731;45.456;11.064;2022-11-20T01:05:14;99972.00;;;10.30
68745;BMP180;55731;45.456;11.064;2022-11-20T01:07:51;99975.00;;;10.40
68745;BMP180;55731;45.456;11.064;2022-11-20T01:10:28;99971.40;;;10.40
68745;BMP180;55731;45.456;11.064;2022-11-20T01:13:04;99975.40;;;10.40
68745;BMP180;55731;45.456;11.064;2022-11-20T01:16:04;99975.80;;;10.30
68745;BMP180;55731;45.456;11.064;2022-11-20T01:18:42;99976.20;;;10.26
68745;BMP180;55731;45.456;11.064;2022-11-20T01:21:23;99973.00;;;10.20
68745;BMP180;55731;45.456;11.064;2022-11-20T01:23:59;99976.40;;;10.18
68745;BMP180;55731;45.456;11.064;2022-11-20T01:26:44;99976.80;;;10.10
68745;BMP180;55731;45.456;11.064;2022-11-20T01:29:24;99976.80;;;10.10
68745;BMP180;55731;45.456;11.064;2022-11-20T01:32:00;99973.80;;;10.10
68745;BMP180;55731;45.456;11.064;2022-11-20T01:34:37;99974.40;;;10.00
68745;BMP180;55731;45.456;11.064;2022-11-20T01:37:14;99972.20;;;10.00
68745;BMP180;55731;45.456;11.064;2022-11-20T01:39:50;99970.80;;;9.98
68745;BMP180;55731;45.456;11.064;2022-11-20T01:42:27;99971.80;;;9.90
68745;BMP180;55731;45.456;11.064;2022-11-20T01:48:57;99981.60;;;10.00
68745;BMP180;55731;45.456;11.064;2022-11-20T01:51:42;99979.40;;;10.00
68745;BMP180;55731;45.456;11.064;2022-11-20T01:54:27;99977.80;;;10.00
68745;BMP180;55731;45.456;11.064;2022-11-20T01:57:09;99977.40;;;10.00
68745;BMP180;55731;45.456;11.064;2022-11-20T01:59:54;99979.20;;;10.02
68745;BMP180;55731;45.456;11.064;2022-11-20T02:02:33;99980.20;;;10.00
68745;BMP180;55731;45.456;11.064;2022-11-20T02:05:21;99977.20;;;10.00
68745;BMP180;55731;45.456;11.064;2022-11-20T02:08:01;99977.80;;;10.00
68745;BMP180;55731;45.456;11.064;2022-11-20T02:10:39;99973.20;;;10.00
68745;BMP180;55731;45.456;11.064;2022-11-20T02:13:16;99975.60;;;10.00
68745;BMP180;55731;45.456;11.064;2022-11-20T02:16:09;99977.60;;;10.00
68745;BMP180;55731;45.456;11.064;2022-11-20T02:18:46;99977.00;;;10.00
68745;BMP180;55731;45.456;11.064;2022-11-20T02:21:40;99976.20;;;10.00
68745;BMP180;55731;45.456;11.064;2022-11-20T02:24:19;99981.00;;;10.00
68745;BMP180;55731;45.456;11.064;2022-11-20T02:27:01;99982.80;;;10.00
68745;BMP180;55731;45.456;11.064;2022-11-20T02:29:44;99980.20;;;10.00
68745;BMP180;55731;45.456;11.064;2022-11-20T02:32:29;99975.00;;;9.98
68745;BMP180;55731;45.456;11.064;2022-11-20T02:35:56;99972.40;;;9.90
68745;BMP180;55731;45.456;11.064;2022-11-20T02:38:33;99976.80;;;9.90
68745;BMP180;55731;45.456;11.064;2022-11-20T02:41:11;99981.20;;;9.90
68745;BMP180;55731;45.456;11.064;2022-11-20T02:43:47;99987.40;;;9.84
68745;BMP180;55731;45.456;11.064;2022-11-20T02:46:24;99982.40;;;9.80
68745;BMP180;55731;45.456;11.064;2022-11-20T02:49:00;99981.00;;;9.80
68745;BMP180;55731;45.456;11.064;2022-11-20T02:51:37;99981.60;;;9.80
68745;BMP180;55731;45.456;11.064;2022-11-20T02:54:14;99982.20;;;9.80
68745;BMP180;55731;45.456;11.064;2022-11-20T02:56:50;99981.80;;;9.78
68745;BMP180;55731;45.456;11.064;2022-11-20T02:59:27;99980.80;;;9.80
68745;BMP180;55731;45.456;11.064;2022-11-20T03:02:03;99984.20;;;9.80
68745;BMP180;55731;45.456;11.064;2022-11-20T03:04:40;99983.00;;;9.80
68745;BMP180;55731;45.456;11.064;2022-11-20T03:07:15;99988.60;;;9.90
68745;BMP180;55731;45.456;11.064;2022-11-20T03:09:56;99986.00;;;9.80
68745;BMP180;55731;45.456;11.064;2022-11-20T03:12:35;99983.40;;;9.80
68745;BMP180;55731;45.456;11.064;2022-11-20T03:15:15;99984.20;;;9.80
68745;BMP180;55731;45.456;11.064;2022-11-20T03:17:52;99978.60;;;9.80
68745;BMP180;55731;45.456;11.064;2022-11-20T03:20:29;99975.60;;;9.70
68745;BMP180;55731;45.456;11.064;2022-11-20T03:23:05;99981.40;;;9.64
68745;BMP180;55731;45.456;11.064;2022-11-20T03:25:42;99978.80;;;9.60
68745;BMP180;55731;45.456;11.064;2022-11-20T03:28:18;99983.80;;;9.60
68745;BMP180;55731;45.456;11.064;2022-11-20T03:30:55;99989.00;;;9.50
68745;BMP180;55731;45.456;11.064;2022-11-20T03:33:34;99987.40;;;9.50
68745;BMP180;55731;45.456;11.064;2022-11-20T03:36:14;99993.80;;;9.50
68745;BMP180;55731;45.456;11.064;2022-11-20T03:38:50;99996.40;;;9.40
68745;BMP180;55731;45.456;11.064;2022-11-20T03:41:28;99995.60;;;9.40
68745;BMP180;55731;45.456;11.064;2022-11-20T03:44:07;100000.60;;;9.30
68745;BMP180;55731;45.456;11.064;2022-11-20T03:46:44;100003.00;;;9.30
68745;BMP180;55731;45.456;11.064;2022-11-20T03:49:21;100007.00;;;9.30
68745;BMP180;55731;45.456;11.064;2022-11-20T03:51:58;100008.40;;;9.30
68745;BMP180;55731;45.456;11.064;2022-11-20T03:54:35;100009.20;;;9.30
68745;BMP180;55731;45.456;11.064;2022-11-20T03:57:12;100017.00;;;9.30
68745;BMP180;55731;45.456;11.064;2022-11-20T03:59:50;100020.40;;;9.26
68745;BMP180;55731;45.456;11.064;2022-11-20T04:02:27;100025.40;;;9.30
68745;BMP180;55731;45.456;11.064;2022-11-20T04:05:04;100033.80;;;9.30
68745;BMP180;55731;45.456;11.064;2022-11-20T04:07:41;100029.60;;;9.34
68745;BMP180;55731;45.456;11.064;2022-11-20T04:10:18;100029.40;;;9.40
68745;BMP180;55731;45.456;11.064;2022-11-20T04:12:55;100032.00;;;9.40
68745;BMP180;55731;45.456;11.064;2022-11-20T04:15:31;100035.40;;;9.40
68745;BMP180;55731;45.456;11.064;2022-11-20T04:18:11;100036.60;;;9.40
68745;BMP180;55731;45.456;11.064;2022-11-20T04:20:48;100037.20;;;9.38
68745;BMP180;55731;45.456;11.064;2022-11-20T04:23:25;100042.40;;;9.30
68745;BMP180;55731;45.456;11.064;2022-11-20T04:26:09;100039.40;;;9.30
68745;BMP180;55731;45.456;11.064;2022-11-20T04:28:46;100042.40;;;9.28
68745;BMP180;55731;45.456;11.064;2022-11-20T04:31:29;100045.00;;;9.20
68745;BMP180;55731;45.456;11.064;2022-11-20T04:34:11;100047.00;;;9.20
68745;BMP180;55731;45.456;11.064;2022-11-20T04:36:48;100034.80;;;9.12
68745;BMP180;55731;45.456;11.064;2022-11-20T04:39:24;100034.40;;;9.10
68745;BMP180;55731;45.456;11.064;2022-11-20T04:42:01;100039.40;;;9.02
68745;BMP180;55731;45.456;11.064;2022-11-20T04:44:58;100045.00;;;9.00
68745;BMP180;55731;45.456;11.064;2022-11-20T04:47:35;100042.00;;;8.90
68745;BMP180;55731;45.456;11.064;2022-11-20T04:50:14;100043.20;;;8.90
68745;BMP180;55731;45.456;11.064;2022-11-20T04:52:51;100044.80;;;8.90
68745;BMP180;55731;45.456;11.064;2022-11-20T04:55:28;100054.00;;;8.80
68745;BMP180;55731;45.456;11.064;2022-11-20T04:58:04;100049.80;;;8.80
68745;BMP180;55731;45.456;11.064;2022-11-20T05:00:39;100048.20;;;8.86
68745;BMP180;55731;45.456;11.064;2022-11-20T05:03:16;100051.60;;;8.90
68745;BMP180;55731;45.456;11.064;2022-11-20T05:05:53;100052.20;;;9.00
68745;BMP180;55731;45.456;11.064;2022-11-20T05:08:30;100052.60;;;9.00
68745;BMP180;55731;45.456;11.064;2022-11-20T05:11:09;100051.40;;;9.00
68745;BMP180;55731;45.456;11.064;2022-11-20T05:13:46;100061.40;;;9.00
68745;BMP180;55731;45.456;11.064;2022-11-20T05:16:25;100057.20;;;8.90
68745;BMP180;55731;45.456;11.064;2022-11-20T05:19:05;100057.40;;;8.90
68745;BMP180;55731;45.456;11.064;2022-11-20T05:21:42;100065.00;;;8.80
68745;BMP180;55731;45.456;11.064;2022-11-20T05:24:19;100058.80;;;8.80
68745;BMP180;55731;45.456;11.064;2022-11-20T05:26:55;100061.00;;;8.80
68745;BMP180;55731;45.456;11.064;2022-11-20T05:29:32;100070.00;;;8.80
68745;BMP180;55731;45.456;11.064;2022-11-20T05:32:10;100074.80;;;8.80
68745;BMP180;55731;45.456;11.064;2022-11-20T05:35:11;100074.00;;;8.80
68745;BMP180;55731;45.456;11.064;2022-11-20T05:37:48;100068.40;;;8.80
68745;BMP180;55731;45.456;11.064;2022-11-20T05:40:27;100068.60;;;8.78
68745;BMP180;55731;45.456;11.064;2022-11-20T05:43:03;100075.40;;;8.72
68745;BMP180;55731;45.456;11.064;2022-11-20T05:45:40;100079.40;;;8.80
68745;BMP180;55731;45.456;11.064;2022-11-20T05:48:16;100082.60;;;8.80
68745;BMP180;55731;45.456;11.064;2022-11-20T05:50:52;100085.20;;;8.80
68745;BMP180;55731;45.456;11.064;2022-11-20T05:53:29;100090.00;;;8.80
68745;BMP180;55731;45.456;11.064;2022-11-20T05:56:10;100092.40;;;8.80
68745;BMP180;55731;45.456;11.064;2022-11-20T05:58:47;100094.80;;;8.80
68745;BMP180;55731;45.456;11.064;2022-11-20T06:01:25;100098.20;;;8.80
68745;BMP180;55731;45.456;11.064;2022-11-20T06:04:02;100098.40;;;8.80
68745;BMP180;55731;45.456;11.064;2022-11-20T06:06:40;100105.60;;;8.80
68745;BMP180;55731;45.456;11.064;2022-11-20T06:09:17;100102.40;;;8.76
68745;BMP180;55731;45.456;11.064;2022-11-20T06:11:54;100109.00;;;8.80
68745;BMP180;55731;45.456;11.064;2022-11-20T06:14:31;100111.40;;;8.72
68745;BMP180;55731;45.456;11.064;2022-11-20T06:17:08;100113.60;;;8.70
68745;BMP180;55731;45.456;11.064;2022-11-20T06:19:45;100114.00;;;8.70
68745;BMP180;55731;45.456;11.064;2022-11-20T06:22:22;100113.00;;;8.70
68745;BMP180;55731;45.456;11.064;2022-11-20T06:24:58;100115.20;;;8.70
68745;BMP180;55731;45.456;11.064;2022-11-20T06:27:34;100114.60;;;8.60
68745;BMP180;55731;45.456;11.064;2022-11-20T06:30:18;100119.60;;;8.60
68745;BMP180;55731;45.456;11.064;2022-11-20T06:32:55;100121.80;;;8.70
68745;BMP180;55731;45.456;11.064;2022-11-20T06:35:32;100115.00;;;8.70
68745;BMP180;55731;45.456;11.064;2022-11-20T06:38:08;100121.80;;;8.70
68745;BMP180;55731;45.456;11.064;2022-11-20T06:40:46;100130.80;;;8.80
68745;BMP180;55731;45.456;11.064;2022-11-20T06:43:23;100128.20;;;8.80
68745;BMP180;55731;45.456;11.064;2022-11-20T06:46:00;100133.40;;;8.70
68745;BMP180;55731;45.456;11.064;2022-11-20T06:48:37;100137.20;;;8.72
68745;BMP180;55731;45.456;11.064;2022-11-20T06:51:13;100137.40;;;8.80
68745;BMP180;55731;45.456;11.064;2022-11-20T06:53:50;100139.60;;;8.80
68745;BMP180;55731;45.456;11.064;2022-11-20T06:56:27;100147.40;;;8.80
68745;BMP180;55731;45.456;11.064;2022-11-20T06:59:09;100148.60;;;8.80
68745;BMP180;55731;45.456;11.064;2022-11-20T07:01:46;100150.80;;;8.80
68745;BMP180;55731;45.456;11.064;2022-11-20T07:04:23;100156.40;;;8.80
68745;BMP180;55731;45.456;11.064;2022-11-20T07:07:00;100157.20;;;8.82
68745;BMP180;55731;45.456;11.064;2022-11-20T07:09:36;100157.60;;;8.90
68745;BMP180;55731;45.456;11.064;2022-11-20T07:12:13;100156.80;;;8.90
68745;BMP180;55731;45.456;11.064;2022-11-20T07:14:50;100157.80;;;9.00
68745;BMP180;55731;45.456;11.064;2022-11-20T07:17:26;100160.20;;;9.10
68745;BMP180;55731;45.456;11.064;2022-11-20T07:20:03;100165.20;;;9.20
68745;BMP180;55731;45.456;11.064;2022-11-20T07:22:40;100167.60;;;9.30
68745;BMP180;55731;45.456;11.064;2022-11-20T07:25:17;100167.80;;;9.36
68745;BMP180;55731;45.456;11.064;2022-11-20T07:27:56;100168.80;;;9.46
68745;BMP180;55731;45.456;11.064;2022-11-20T07:30:32;100166.00;;;9.50
68745;BMP180;55731;45.456;11.064;2022-11-20T07:33:09;100171.20;;;9.60
68745;BMP180;55731;45.456;11.064;2022-11-20T07:35:46;100171.60;;;9.70
68745;BMP180;55731;45.456;11.064;2022-11-20T07:38:22;100171.40;;;9.60
68745;BMP180;55731;45.456;11.064;2022-11-20T07:41:01;100173.60;;;9.42
68745;BMP180;55731;45.456;11.064;2022-11-20T07:43:37;100174.40;;;9.30
68745;BMP180;55731;45.456;11.064;2022-11-20T07:46:14;100177.80;;;9.26
68745;BMP180;55731;45.456;11.064;2022-11-20T07:48:50;100180.60;;;9.30
68745;BMP180;55731;45.456;11.064;2022-11-20T07:51:27;100179.20;;;9.34
68745;BMP180;55731;45.456;11.064;2022-11-20T07:54:04;100183.40;;;9.42
68745;BMP180;55731;45.456;11.064;2022-11-20T07:56:41;100184.80;;;9.50
68745;BMP180;55731;45.456;11.064;2022-11-20T07:59:17;100183.00;;;9.60
68745;BMP180;55731;45.456;11.064;2022-11-20T08:01:53;100185.60;;;9.70
68745;BMP180;55731;45.456;11.064;2022-11-20T08:04:29;100193.20;;;9.80
68745;BMP180;55731;45.456;11.064;2022-11-20T08:07:06;100189.20;;;9.90
68745;BMP180;55731;45.456;11.064;2022-11-20T08:09:43;100196.60;;;10.00
68745;BMP180;55731;45.456;11.064;2022-11-20T08:12:23;100189.60;;;10.10
68745;BMP180;55731;45.456;11.064;2022-11-20T08:15:17;100194.00;;;10.22
68745;BMP180;55731;45.456;11.064;2022-11-20T08:17:58;100197.80;;;10.36
68745;BMP180;55731;45.456;11.064;2022-11-20T08:20:55;100204.80;;;10.50
68745;BMP180;55731;45.456;11.064;2022-11-20T08:23:31;100208.60;;;10.60
68745;BMP180;55731;45.456;11.064;2022-11-20T08:26:09;100204.60;;;10.70
68745;BMP180;55731;45.456;11.064;2022-11-20T08:28:46;100210.20;;;10.80
68745;BMP180;55731;45.456;11.064;2022-11-20T08:31:23;100208.00;;;10.90
68745;BMP180;55731;45.456;11.064;2022-11-20T08:34:09;100209.20;;;11.00
68745;BMP180;55731;45.456;11.064;2022-11-20T08:36:52;100210.60;;;11.10
68745;BMP180;55731;45.456;11.064;2022-11-20T08:39:29;100209.00;;;11.10
68745;BMP180;55731;45.456;11.064;2022-11-20T08:42:08;100210.80;;;11.20
68745;BMP180;55731;45.456;11.064;2022-11-20T08:44:44;100208.20;;;11.24
68745;BMP180;55731;45.456;11.064;2022-11-20T08:47:20;100207.80;;;11.30
68745;BMP180;55731;45.456;11.064;2022-11-20T08:49:57;100210.40;;;11.40
68745;BMP180;55731;45.456;11.064;2022-11-20T08:52:34;100212.40;;;11.44
68745;BMP180;55731;45.456;11.064;2022-11-20T08:55:13;100211.80;;;11.50
68745;BMP180;55731;45.456;11.064;2022-11-20T08:57:50;100211.80;;;11.50
68745;BMP180;55731;45.456;11.064;2022-11-20T09:00:27;100216.40;;;11.50
68745;BMP180;55731;45.456;11.064;2022-11-20T09:03:04;100217.40;;;11.50
68745;BMP180;55731;45.456;11.064;2022-11-20T09:05:41;100215.40;;;11.50
68745;BMP180;55731;45.456;11.064;2022-11-20T09:08:18;100224.00;;;11.60
68745;BMP180;55731;45.456;11.064;2022-11-20T09:10:57;100222.40;;;11.64
68745;BMP180;55731;45.456;11.064;2022-11-20T09:13:34;100223.60;;;11.70
68745;BMP180;55731;45.456;11.064;2022-11-20T09:16:12;100222.40;;;11.80
68745;BMP180;55731;45.456;11.064;2022-11-20T09:18:52;100222.60;;;11.90
68745;BMP180;55731;45.456;11.064;2022-11-20T09:21:48;100232.00;;;12.00
68745;BMP180;55731;45.456;11.064;2022-11-20T09:24:31;100234.00;;;12.10
68745;BMP180;55731;45.456;11.064;2022-11-20T09:27:09;100235.00;;;12.20
68745;BMP180;55731;45.456;11.064;2022-11-20T09:29:45;100236.20;;;12.34
68745;BMP180;55731;45.456;11.064;2022-11-20T09:32:22;100236.00;;;12.42
68745;BMP180;55731;45.456;11.064;2022-11-20T09:34:59;100232.20;;;12.50
68745;BMP180;55731;45.456;11.064;2022-11-20T09:37:35;100231.00;;;12.60
68745;BMP180;55731;45.456;11.064;2022-11-20T09:40:24;100231.80;;;12.70
68745;BMP180;55731;45.456;11.064;2022-11-20T09:43:07;100231.60;;;12.80
68745;BMP180;55731;45.456;11.064;2022-11-20T09:46:09;100232.60;;;12.90
68745;BMP180;55731;45.456;11.064;2022-11-20T09:49:02;100237.40;;;13.00
68745;BMP180;55731;45.456;11.064;2022-11-20T09:51:53;100239.80;;;13.10
68745;BMP180;55731;45.456;11.064;2022-11-20T09:54:37;100231.20;;;13.12
68745;BMP180;55731;45.456;11.064;2022-11-20T09:57:21;100231.20;;;13.20
68745;BMP180;55731;45.456;11.064;2022-11-20T10:00:03;100231.80;;;13.30
68745;BMP180;55731;45.456;11.064;2022-11-20T10:02:53;100232.00;;;13.34
68745;BMP180;55731;45.456;11.064;2022-11-20T10:05:37;100228.60;;;13.40
68745;BMP180;55731;45.456;11.064;2022-11-20T10:08:24;100225.80;;;13.44
68745;BMP180;55731;45.456;11.064;2022-11-20T10:11:13;100224.80;;;13.50
68745;BMP180;55731;45.456;11.064;2022-11-20T10:14:10;100221.80;;;13.60
68745;BMP180;55731;45.456;11.064;2022-11-20T10:17:01;100220.00;;;13.70
68745;BMP180;55731;45.456;11.064;2022-11-20T10:20:07;100218.80;;;13.74
68745;BMP180;55731;45.456;11.064;2022-11-20T10:23:16;100215.40;;;13.80
68745;BMP180;55731;45.456;11.064;2022-11-20T10:26:10;100209.80;;;13.90
68745;BMP180;55731;45.456;11.064;2022-11-20T10:29:06;100211.80;;;13.90
68745;BMP180;55731;45.456;11.064;2022-11-20T10:31:48;100218.80;;;13.98
68745;BMP180;55731;45.456;11.064;2022-11-20T10:34:37;100218.20;;;14.00
68745;BMP180;55731;45.456;11.064;2022-11-20T10:37:21;100213.60;;;14.10
68745;BMP180;55731;45.456;11.064;2022-11-20T10:40:05;100215.80;;;14.10
68745;BMP180;55731;45.456;11.064;2022-11-20T10:42:54;100211.40;;;14.20
68745;BMP180;55731;45.456;11.064;2022-11-20T10:45:48;100210.20;;;14.20
68745;BMP180;55731;45.456;11.064;2022-11-20T10:48:27;100209.40;;;14.20
68745;BMP180;55731;45.456;11.064;2022-11-20T10:51:21;100208.60;;;14.30
68745;BMP180;55731;45.456;11.064;2022-11-20T10:54:18;100204.00;;;14.30
68745;BMP180;55731;45.456;11.064;2022-11-20T10:57:01;100198.80;;;14.40
68745;BMP180;55731;45.456;11.064;2022-11-20T11:00:15;100203.00;;;14.40
68745;BMP180;55731;45.456;11.064;2022-11-20T11:02:53;100194.40;;;14.40
68745;BMP180;55731;45.456;11.064;2022-11-20T11:05:44;100198.00;;;14.50
68745;BMP180;55731;45.456;11.064;2022-11-20T11:08:23;100196.80;;;14.50
68745;BMP180;55731;45.456;11.064;2022-11-20T11:11:14;100200.00;;;14.60
68745;BMP180;55731;45.456;11.064;2022-11-20T11:13:54;100195.60;;;14.68
68745;BMP180;55731;45.456;11.064;2022-11-20T11:16:51;100189.00;;;14.70
68745;BMP180;55731;45.456;11.064;2022-11-20T11:19:28;100189.20;;;14.80
68745;BMP180;55731;45.456;11.064;2022-11-20T11:22:22;100185.60;;;14.80
68745;BMP180;55731;45.456;11.064;2022-11-20T11:24:59;100174.80;;;14.80
68745;BMP180;55731;45.456;11.064;2022-11-20T11:27:47;100175.40;;;14.90
68745;BMP180;55731;45.456;11.064;2022-11-20T11:30:25;100172.40;;;14.90
68745;BMP180;55731;45.456;11.064;2022-11-20T11:33:18;100170.60;;;14.90
68745;BMP180;55731;45.456;11.064;2022-11-20T11:35:58;100172.40;;;15.00
68745;BMP180;55731;45.456;11.064;2022-11-20T11:38:38;100169.40;;;15.00
68745;BMP180;55731;45.456;11.064;2022-11-20T11:41:22;100162.60;;;15.00
68745;BMP180;55731;45.456;11.064;2022-11-20T11:44:12;100165.00;;;15.04
68745;BMP180;55731;45.456;11.064;2022-11-20T11:47:28;100162.20;;;15.10
68745;BMP180;55731;45.456;11.064;2022-11-20T11:50:22;100158.00;;;15.10
68745;BMP180;55731;45.456;11.064;2022-11-20T11:53:16;100161.40;;;15.12
68745;BMP180;55731;45.456;11.064;2022-11-20T11:55:58;100159.40;;;15.20
68745;BMP180;55731;45.456;11.064;2022-11-20T11:58:46;100154.80;;;15.20
68745;BMP180;55731;45.456;11.064;2022-11-20T12:01:32;100156.20;;;15.20
68745;BMP180;55731;45.456;11.064;2022-11-20T12:04:23;100159.00;;;15.20
68745;BMP180;55731;45.456;11.064;2022-11-20T12:07:13;100159.60;;;15.20
68745;BMP180;55731;45.456;11.064;2022-11-20T12:10:22;100159.60;;;15.22
68745;BMP180;55731;45.456;11.064;2022-11-20T12:13:04;100160.80;;;15.20
68745;BMP180;55731;45.456;11.064;2022-11-20T12:15:49;100157.40;;;15.20
68745;BMP180;55731;45.456;11.064;2022-11-20T12:18:27;100156.40;;;15.22
68745;BMP180;55731;45.456;11.064;2022-11-20T12:21:23;100155.00;;;15.30
68745;BMP180;55731;45.456;11.064;2022-11-20T12:24:26;100155.20;;;15.30
68745;BMP180;55731;45.456;11.064;2022-11-20T12:30:21;100150.20;;;15.30
68745;BMP180;55731;45.456;11.064;2022-11-20T12:36:27;100143.60;;;15.30
68745;BMP180;55731;45.456;11.064;2022-11-20T12:39:29;100144.20;;;15.30
68745;BMP180;55731;45.456;11.064;2022-11-20T12:42:37;100140.60;;;15.20
68745;BMP180;55731;45.456;11.064;2022-11-20T12:45:54;100137.60;;;15.20
68745;BMP180;55731;45.456;11.064;2022-11-20T12:48:55;100136.80;;;15.22
68745;BMP180;55731;45.456;11.064;2022-11-20T12:51:55;100136.80;;;15.28
68745;BMP180;55731;45.456;11.064;2022-11-20T12:55:07;100137.60;;;15.30
68745;BMP180;55731;45.456;11.064;2022-11-20T12:57:53;100136.20;;;15.40
68745;BMP180;55731;45.456;11.064;2022-11-20T13:00:32;100136.60;;;15.40
68745;BMP180;55731;45.456;11.064;2022-11-20T13:06:21;100129.80;;;15.30
68745;BMP180;55731;45.456;11.064;2022-11-20T13:08:59;100134.60;;;15.30
68745;BMP180;55731;45.456;11.064;2022-11-20T13:11:44;100134.60;;;15.20
68745;BMP180;55731;45.456;11.064;2022-11-20T13:14:34;100133.20;;;15.20
68745;BMP180;55731;45.456;11.064;2022-11-20T13:17:22;100134.20;;;15.20
68745;BMP180;55731;45.456;11.064;2022-11-20T13:20:01;100136.60;;;15.20
68745;BMP180;55731;45.456;11.064;2022-11-20T13:22:49;100135.20;;;15.20
68745;BMP180;55731;45.456;11.064;2022-11-20T13:25:31;100127.40;;;15.20
68745;BMP180;55731;45.456;11.064;2022-11-20T13:28:28;100128.20;;;15.20
68745;BMP180;55731;45.456;11.064;2022-11-20T13:31:09;100123.60;;;15.14
68745;BMP180;55731;45.456;11.064;2022-11-20T13:33:54;100119.60;;;15.10
68745;BMP180;55731;45.456;11.064;2022-11-20T13:36:32;100119.60;;;15.10
68745;BMP180;55731;45.456;11.064;2022-11-20T13:39:12;100117.00;;;15.10
68745;BMP180;55731;45.456;11.064;2022-11-20T13:41:59;100108.80;;;15.10
68745;BMP180;55731;45.456;11.064;2022-11-20T13:44:42;100107.40;;;15.10
68745;BMP180;55731;45.456;11.064;2022-11-20T13:47:26;100104.40;;;15.00
68745;BMP180;55731;45.456;11.064;2022-11-20T13:50:08;100109.60;;;15.00
68745;BMP180;55731;45.456;11.064;2022-11-20T13:52:58;100108.20;;;15.00
68745;BMP180;55731;45.456;11.064;2022-11-20T13:55:45;100110.20;;;15.00
68745;BMP180;55731;45.456;11.064;2022-11-20T14:01:31;100113.00;;;14.90
68745;BMP180;55731;45.456;11.064;2022-11-20T14:04:23;100116.00;;;14.90
68745;BMP180;55731;45.456;11.064;2022-11-20T14:07:02;100116.00;;;14.84
68745;BMP180;55731;45.456;11.064;2022-11-20T14:09:51;100121.80;;;14.80
68745;BMP180;55731;45.456;11.064;2022-11-20T14:12:33;100120.20;;;14.80
68745;BMP180;55731;45.456;11.064;2022-11-20T14:15:32;100112.80;;;14.80
68745;BMP180;55731;45.456;11.064;2022-11-20T14:18:25;100115.40;;;14.80
68745;BMP180;55731;45.456;11.064;2022-11-20T14:21:07;100114.40;;;14.70
68745;BMP180;55731;45.456;11.064;2022-11-20T14:23:45;100115.40;;;14.70
68745;BMP180;55731;45.456;11.064;2022-11-20T14:26:22;100111.20;;;14.70
68745;BMP180;55731;45.456;11.064;2022-11-20T14:28:59;100115.80;;;14.70
68745;BMP180;55731;45.456;11.064;2022-11-20T14:31:36;100118.20;;;14.70
68745;BMP180;55731;45.456;11.064;2022-11-20T14:34:21;100116.80;;;14.60
68745;BMP180;55731;45.456;11.064;2022-11-20T14:37:01;100113.40;;;14.60
68745;BMP180;55731;45.456;11.064;2022-11-20T14:39:40;100115.20;;;14.60
68745;BMP180;55731;45.456;11.064;2022-11-20T14:42:23;100113.60;;;14.50
68745;BMP180;55731;45.456;11.064;2022-11-20T14:45:01;100118.00;;;14.50
68745;BMP180;55731;45.456;11.064;2022-11-20T14:47:38;100112.20;;;14.40
68745;BMP180;55731;45.456;11.064;2022-11-20T14:50:21;100110.40;;;14.30
68745;BMP180;55731;45.456;11.064;2022-11-20T14:53:00;100110.40;;;14.30
68745;BMP180;55731;45.456;11.064;2022-11-20T14:55:39;100111.40;;;14.22
68745;BMP180;55731;45.456;11.064;2022-11-20T14:58:27;100111.60;;;14.20
68745;BMP180;55731;45.456;11.064;2022-11-20T15:01:05;100115.80;;;14.10
68745;BMP180;55731;45.456;11.064;2022-11-20T15:03:43;100126.80;;;14.10
68745;BMP180;55731;45.456;11.064;2022-11-20T15:06:29;100128.60;;;14.00
68745;BMP180;55731;45.456;11.064;2022-11-20T15:09:12;100132.00;;;13.98
68745;BMP180;55731;45.456;11.064;2022-11-20T15:11:57;100119.40;;;13.90
68745;BMP180;55731;45.456;11.064;2022-11-20T15:14:38;100118.40;;;13.80
68745;BMP180;55731;45.456;11.064;2022-11-20T15:17:16;100128.60;;;13.70
68745;BMP180;55731;45.456;11.064;2022-11-20T15:19:53;100127.00;;;13.70
68745;BMP180;55731;45.456;11.064;2022-11-20T15:22:31;100128.80;;;13.60
68745;BMP180;55731;45.456;11.064;2022-11-20T15:25:16;100130.60;;;13.50
68745;BMP180;55731;45.456;11.064;2022-11-20T15:27:57;100136.80;;;13.50
68745;BMP180;55731;45.456;11.064;2022-11-20T15:30:34;100143.20;;;13.40